createdAt,value
2023-01-29T00:00:14.092Z,11.27
2023-01-29T00:02:43.325Z,12.77
2023-01-29T00:05:26.611Z,17.17
2023-01-29T00:07:56.460Z,15.20
2023-01-29T00:10:25.598Z,14.13
2023-01-29T00:12:56.178Z,14.43
2023-01-29T00:15:23.747Z,12.47
2023-01-29T00:17:51.251Z,11.87
2023-01-29T00:20:19.304Z,11.20
2023-01-29T00:22:46.979Z,11.30
2023-01-29T00:25:14.555Z,10.77
2023-01-29T00:27:42.014Z,11.50
2023-01-29T00:30:12.960Z,10.97
2023-01-29T00:32:41.957Z,11.47
2023-01-29T00:35:10.459Z,11.07
2023-01-29T00:37:38.129Z,9.83
2023-01-29T00:40:06.749Z,9.97
2023-01-29T00:42:52.735Z,10.13
2023-01-29T00:45:20.305Z,10.57
2023-01-29T00:47:47.984Z,10.47
2023-01-29T00:50:15.643Z,10.43
2023-01-29T00:52:44.051Z,10.43
2023-01-29T00:55:12.457Z,9.63
2023-01-29T00:57:40.255Z,9.33
2023-01-29T01:00:12.296Z,10.23
2023-01-29T01:02:58.354Z,10.07
2023-01-29T01:05:27.351Z,8.87
2023-01-29T01:07:58.199Z,8.50
2023-01-29T01:10:34.194Z,9.70
2023-01-29T01:13:08.603Z,8.97
2023-01-29T01:15:39.856Z,8.23
2023-01-29T01:18:07.654Z,8.03
2023-01-29T01:20:36.963Z,8.37
2023-01-29T01:23:05.244Z,8.07
2023-01-29T01:25:33.050Z,8.03
2023-01-29T01:28:01.336Z,9.37
2023-01-29T01:30:28.980Z,9.43
2023-01-29T01:32:56.513Z,9.47
2023-01-29T01:35:24.069Z,8.30
2023-01-29T01:37:51.617Z,9.03
2023-01-29T01:40:22.406Z,8.47
2023-01-29T01:42:56.467Z,8.10
2023-01-29T01:45:28.286Z,8.53
2023-01-29T01:48:17.925Z,8.13
2023-01-29T01:51:03.321Z,8.70
2023-01-29T01:53:39.082Z,8.37
2023-01-29T01:56:11.632Z,7.70
2023-01-29T01:58:44.215Z,7.90
2023-01-29T02:01:12.864Z,7.67
2023-01-29T02:04:32.248Z,7.80
2023-01-29T02:07:23.267Z,7.40
2023-01-29T02:10:00.939Z,7.80
2023-01-29T02:12:31.539Z,8.00
2023-01-29T02:14:59.831Z,8.53
2023-01-29T02:17:27.376Z,8.90
2023-01-29T02:20:20.817Z,8.77
2023-01-29T02:23:42.279Z,9.17
2023-01-29T02:26:37.211Z,11.17
2023-01-29T02:29:25.256Z,12.53
2023-01-29T02:32:09.848Z,11.53
2023-01-29T02:35:29.996Z,10.90
2023-01-29T02:38:09.420Z,10.10
2023-01-29T02:40:41.206Z,11.13
2023-01-29T02:43:16.123Z,11.00
2023-01-29T02:46:09.462Z,11.20
2023-01-29T02:49:10.769Z,9.47
2023-01-29T02:52:15.280Z,9.70
2023-01-29T02:55:04.845Z,12.07
2023-01-29T02:57:41.076Z,13.87
2023-01-29T03:00:19.491Z,13.00
2023-01-29T03:03:11.276Z,11.30
2023-01-29T03:05:58.562Z,11.43
2023-01-29T03:08:45.633Z,10.40
2023-01-29T03:11:16.459Z,9.93
2023-01-29T03:14:00.329Z,9.07
2023-01-29T03:16:50.383Z,9.33
2023-01-29T03:19:29.062Z,9.53
2023-01-29T03:22:04.199Z,10.20
2023-01-29T03:24:58.432Z,10.03
2023-01-29T03:27:55.851Z,11.20
2023-01-29T03:30:47.033Z,11.70
2023-01-29T03:33:30.022Z,10.73
2023-01-29T03:36:05.730Z,9.67
2023-01-29T03:38:33.571Z,9.83
2023-01-29T03:41:21.555Z,10.40
2023-01-29T03:44:14.167Z,9.40
2023-01-29T03:46:57.452Z,10.00
2023-01-29T03:49:54.880Z,10.57
2023-01-29T03:52:52.217Z,10.97
2023-01-29T03:56:14.448Z,10.43
2023-01-29T03:58:55.328Z,9.27
2023-01-29T04:01:40.995Z,9.30
2023-01-29T04:04:26.141Z,9.53
2023-01-29T04:06:58.562Z,9.33
2023-01-29T04:09:37.541Z,9.20
2023-01-29T04:12:10.276Z,9.43
2023-01-29T04:14:40.767Z,10.23
2023-01-29T04:17:23.753Z,10.53
2023-01-29T04:20:01.656Z,10.33
2023-01-29T04:22:37.152Z,10.97
2023-01-29T04:25:16.160Z,11.40
2023-01-29T04:28:22.175Z,13.30
2023-01-29T04:31:07.244Z,13.30
2023-01-29T04:33:48.598Z,15.90
2023-01-29T04:36:39.891Z,12.87
2023-01-29T04:39:28.862Z,10.30
2023-01-29T04:42:15.822Z,9.00
2023-01-29T04:45:23.158Z,7.93
2023-01-29T04:48:07.890Z,8.70
2023-01-29T04:51:13.266Z,8.43
2023-01-29T04:53:57.771Z,9.47
2023-01-29T04:56:49.453Z,10.67
2023-01-29T04:59:40.777Z,10.43
2023-01-29T05:02:10.749Z,9.00
2023-01-29T05:04:41.599Z,9.87
2023-01-29T05:07:13.839Z,10.17
2023-01-29T05:09:45.649Z,8.80
2023-01-29T05:12:16.655Z,8.93
2023-01-29T05:14:46.864Z,10.10
2023-01-29T05:17:20.832Z,10.77
2023-01-29T05:19:48.663Z,10.10
2023-01-29T05:22:22.745Z,10.87
2023-01-29T05:24:51.394Z,9.43
2023-01-29T05:27:51.182Z,8.87
2023-01-29T05:30:18.959Z,9.20
2023-01-29T05:32:46.693Z,9.40
2023-01-29T05:35:14.177Z,10.10
2023-01-29T05:37:41.743Z,8.87
2023-01-29T05:40:10.239Z,8.20
2023-01-29T05:42:37.780Z,8.57
2023-01-29T05:45:06.258Z,8.93
2023-01-29T05:47:33.720Z,9.47
2023-01-29T05:50:02.287Z,9.67
2023-01-29T05:52:29.773Z,9.57
2023-01-29T05:54:57.319Z,9.50
2023-01-29T05:57:24.816Z,9.00
2023-01-29T05:59:52.332Z,8.60
2023-01-29T06:02:19.912Z,9.93
2023-01-29T06:04:47.400Z,9.17
2023-01-29T06:07:14.865Z,9.20
2023-01-29T06:09:42.341Z,7.87
2023-01-29T06:12:12.112Z,8.70
2023-01-29T06:14:39.673Z,9.60
2023-01-29T06:17:07.414Z,9.63
2023-01-29T06:19:35.215Z,8.87
2023-01-29T06:22:02.716Z,7.03
2023-01-29T06:24:30.481Z,7.90
2023-01-29T06:26:57.975Z,9.30
2023-01-29T06:29:27.787Z,9.17
2023-01-29T06:31:55.412Z,9.40
2023-01-29T06:34:22.983Z,9.67
2023-01-29T06:36:50.551Z,9.50
2023-01-29T06:39:17.999Z,9.60
2023-01-29T06:41:46.334Z,7.73
2023-01-29T06:44:15.003Z,8.30
2023-01-29T06:46:42.534Z,8.67
2023-01-29T06:49:10.641Z,9.43
2023-01-29T06:51:38.286Z,9.27
2023-01-29T06:54:08.533Z,8.00
2023-01-29T06:56:36.157Z,11.07
2023-01-29T06:59:04.927Z,12.30
2023-01-29T07:01:36.332Z,10.53
2023-01-29T07:04:05.656Z,11.70
2023-01-29T07:06:33.733Z,15.63
2023-01-29T07:09:05.960Z,13.30
2023-01-29T07:11:38.050Z,12.00
2023-01-29T07:14:05.932Z,10.67
2023-01-29T07:16:34.391Z,11.70
2023-01-29T07:19:02.413Z,20.37
2023-01-29T07:21:29.991Z,19.30
2023-01-29T07:23:57.841Z,19.07
2023-01-29T07:26:25.450Z,12.17
2023-01-29T07:28:53.006Z,12.27
2023-01-29T07:31:21.677Z,14.73
2023-01-29T07:33:49.257Z,13.00
2023-01-29T07:36:16.820Z,16.80
2023-01-29T07:38:44.335Z,13.23
2023-01-29T07:41:12.756Z,15.10
2023-01-29T07:43:40.356Z,19.27
2023-01-29T07:46:08.141Z,13.40
2023-01-29T07:48:37.359Z,14.23
2023-01-29T07:51:05.568Z,15.33
2023-01-29T07:53:33.204Z,13.77
2023-01-29T07:56:00.677Z,13.30
2023-01-29T07:58:28.246Z,11.87
2023-01-29T08:00:55.753Z,13.80
2023-01-29T08:03:23.228Z,11.73
2023-01-29T08:05:50.839Z,12.30
2023-01-29T08:08:19.377Z,9.90
2023-01-29T08:10:47.065Z,8.43
2023-01-29T08:13:14.786Z,9.40
2023-01-29T08:15:45.991Z,7.80
2023-01-29T08:18:14.572Z,9.50
2023-01-29T08:20:44.647Z,11.80
2023-01-29T08:23:16.929Z,12.17
2023-01-29T08:25:44.821Z,9.47
2023-01-29T08:28:14.208Z,11.37
2023-01-29T08:30:43.087Z,9.27
2023-01-29T08:33:10.862Z,10.10
2023-01-29T08:35:41.278Z,7.50
2023-01-29T08:38:10.776Z,11.93
2023-01-29T08:40:39.410Z,10.83
2023-01-29T08:43:09.461Z,8.37
2023-01-29T08:45:41.117Z,8.50
2023-01-29T08:48:09.790Z,8.30
2023-01-29T08:50:38.586Z,12.73
2023-01-29T08:53:08.516Z,26.83
2023-01-29T08:55:38.953Z,9.87
2023-01-29T08:58:10.044Z,9.47
2023-01-29T09:00:39.610Z,8.43
2023-01-29T09:03:08.270Z,7.83
2023-01-29T09:05:38.143Z,7.80
2023-01-29T09:08:07.783Z,6.57
2023-01-29T09:10:36.153Z,6.63
2023-01-29T09:13:04.165Z,8.53
2023-01-29T09:15:32.114Z,8.97
2023-01-29T09:18:04.288Z,8.20
2023-01-29T09:20:32.110Z,7.90
2023-01-29T09:23:03.563Z,9.43
2023-01-29T09:25:31.120Z,9.37
2023-01-29T09:28:01.596Z,16.10
2023-01-29T09:30:31.603Z,8.03
2023-01-29T09:33:04.054Z,8.83
2023-01-29T09:35:31.883Z,10.50
2023-01-29T09:38:01.375Z,7.77
2023-01-29T09:40:53.452Z,6.67
2023-01-29T09:43:59.178Z,7.23
2023-01-29T09:46:48.266Z,11.37
2023-01-29T09:49:35.796Z,7.50
2023-01-29T09:52:18.214Z,8.10
2023-01-29T09:55:00.830Z,13.20
2023-01-29T09:58:07.366Z,15.40
2023-01-29T10:00:51.707Z,13.13
2023-01-29T10:03:36.590Z,9.30
2023-01-29T10:06:27.997Z,7.80
2023-01-29T10:09:32.174Z,7.40
2023-01-29T10:12:30.639Z,8.83
2023-01-29T10:15:17.563Z,8.37
2023-01-29T10:18:10.671Z,10.23
2023-01-29T10:21:06.651Z,9.83
2023-01-29T10:23:51.069Z,6.67
2023-01-29T10:26:23.857Z,25.63
2023-01-29T10:28:55.879Z,8.60
2023-01-29T10:31:34.344Z,13.10
2023-01-29T10:34:27.899Z,7.27
2023-01-29T10:36:59.506Z,10.97
2023-01-29T10:39:31.048Z,5.67
2023-01-29T10:42:20.046Z,7.40
2023-01-29T10:45:18.583Z,5.47
2023-01-29T10:47:52.893Z,5.63
2023-01-29T10:50:44.411Z,5.07
2023-01-29T10:53:35.562Z,8.10
2023-01-29T10:56:21.913Z,11.47
2023-01-29T10:59:01.943Z,12.23
2023-01-29T11:01:29.656Z,9.03
2023-01-29T11:04:06.135Z,6.37
2023-01-29T11:06:37.660Z,12.20
2023-01-29T11:09:36.566Z,7.90
2023-01-29T11:12:24.040Z,5.80
2023-01-29T11:15:00.714Z,5.87
2023-01-29T11:17:29.829Z,5.43
2023-01-29T11:19:57.670Z,5.50
2023-01-29T11:22:30.383Z,7.80
2023-01-29T11:25:20.351Z,6.77
2023-01-29T11:28:01.971Z,10.27
2023-01-29T11:30:41.488Z,5.63
2023-01-29T11:33:25.688Z,8.60
2023-01-29T11:35:54.289Z,9.57
2023-01-29T11:38:27.584Z,8.40
2023-01-29T11:41:18.607Z,6.37
2023-01-29T11:43:46.223Z,6.50
2023-01-29T11:46:16.345Z,17.60
2023-01-29T11:48:59.026Z,6.40
2023-01-29T11:51:30.317Z,6.87
2023-01-29T11:54:03.153Z,7.13
2023-01-29T11:56:39.929Z,6.33
2023-01-29T11:59:15.371Z,6.23
2023-01-29T12:01:43.007Z,5.27
2023-01-29T12:04:24.063Z,5.57
2023-01-29T12:06:55.988Z,5.60
2023-01-29T12:09:28.497Z,6.10
2023-01-29T12:11:56.405Z,5.00
2023-01-29T12:14:35.321Z,4.60
2023-01-29T12:17:12.541Z,5.43
2023-01-29T12:20:18.313Z,4.90
2023-01-29T12:23:43.969Z,4.83
2023-01-29T12:26:55.308Z,6.93
2023-01-29T12:29:57.469Z,7.70
2023-01-29T12:33:08.807Z,7.97
2023-01-29T12:35:50.814Z,7.60
2023-01-29T12:38:24.132Z,7.17
2023-01-29T12:41:35.178Z,6.57
2023-01-29T12:44:26.157Z,6.20
2023-01-29T12:46:58.423Z,5.47
2023-01-29T12:49:30.541Z,6.90
2023-01-29T12:52:15.710Z,5.53
2023-01-29T12:55:06.897Z,9.03
2023-01-29T12:58:06.530Z,7.27
2023-01-29T13:00:45.123Z,9.17
2023-01-29T13:03:46.431Z,6.30
2023-01-29T13:06:42.724Z,5.20
2023-01-29T13:09:21.679Z,6.27
2023-01-29T13:12:12.492Z,7.77
2023-01-29T13:15:03.398Z,6.40
2023-01-29T13:17:59.334Z,8.03
2023-01-29T13:20:34.103Z,6.87
2023-01-29T13:23:32.582Z,8.67
2023-01-29T13:26:01.170Z,8.43
2023-01-29T13:28:29.107Z,8.63
2023-01-29T13:31:33.840Z,8.67
2023-01-29T13:34:21.924Z,8.00
2023-01-29T13:36:59.836Z,8.27
2023-01-29T13:39:32.263Z,7.40
2023-01-29T13:42:03.104Z,7.60
2023-01-29T13:44:41.121Z,7.60
2023-01-29T13:47:12.423Z,7.57
2023-01-29T13:49:54.457Z,8.67
2023-01-29T13:52:42.964Z,8.67
2023-01-29T13:55:22.674Z,8.10
2023-01-29T13:57:56.022Z,7.93
2023-01-29T14:00:35.550Z,8.00
2023-01-29T14:03:08.691Z,9.20
2023-01-29T14:05:43.720Z,8.63
2023-01-29T14:08:14.314Z,8.23
2023-01-29T14:10:45.440Z,9.80
2023-01-29T14:13:19.045Z,9.57
2023-01-29T14:15:59.157Z,8.57
2023-01-29T14:18:33.406Z,11.93
2023-01-29T14:21:23.976Z,11.57
2023-01-29T14:24:01.308Z,10.17
2023-01-29T14:26:31.650Z,10.07
2023-01-29T14:29:18.829Z,9.70
2023-01-29T14:32:25.525Z,8.93
2023-01-29T14:34:59.032Z,11.90
2023-01-29T14:37:55.089Z,11.07
2023-01-29T14:40:29.714Z,10.83
2023-01-29T14:43:21.772Z,11.53
2023-01-29T14:45:50.394Z,10.07
2023-01-29T14:48:53.659Z,10.23
2023-01-29T14:51:21.453Z,10.37
2023-01-29T14:54:01.987Z,11.37
2023-01-29T14:56:47.113Z,10.50
2023-01-29T14:59:38.978Z,9.77
2023-01-29T15:02:20.659Z,10.10
2023-01-29T15:04:54.215Z,11.13
2023-01-29T15:07:36.744Z,9.97
2023-01-29T15:10:33.677Z,10.70
2023-01-29T15:13:15.293Z,11.07
2023-01-29T15:16:19.990Z,12.13
2023-01-29T15:18:55.347Z,13.17
2023-01-29T15:21:23.568Z,13.27
2023-01-29T15:24:06.753Z,13.50
2023-01-29T15:26:36.878Z,11.80
2023-01-29T15:29:05.988Z,13.97
2023-01-29T15:31:35.817Z,13.23
2023-01-29T15:34:08.120Z,11.73
2023-01-29T15:36:59.099Z,12.70
2023-01-29T15:39:33.252Z,12.80
2023-01-29T15:42:22.653Z,11.50
2023-01-29T15:44:58.473Z,10.13
2023-01-29T15:47:33.783Z,9.93
2023-01-29T15:50:01.688Z,9.07
2023-01-29T15:52:35.317Z,9.43
2023-01-29T15:55:09.777Z,8.93
2023-01-29T15:57:46.940Z,8.30
2023-01-29T16:00:39.683Z,7.83
2023-01-29T16:03:22.069Z,9.27
2023-01-29T16:05:53.693Z,7.07
2023-01-29T16:08:27.013Z,7.90
2023-01-29T16:10:58.788Z,7.70
2023-01-29T16:13:39.940Z,7.43
2023-01-29T16:16:24.102Z,7.63
2023-01-29T16:19:00.549Z,7.57
2023-01-29T16:21:37.238Z,7.30
2023-01-29T16:24:16.966Z,7.93
2023-01-29T16:26:48.795Z,7.97
2023-01-29T16:29:33.831Z,8.03
2023-01-29T16:32:03.486Z,8.30
2023-01-29T16:34:41.868Z,7.40
2023-01-29T16:37:30.850Z,7.80
2023-01-29T16:40:00.968Z,6.87
2023-01-29T16:42:31.116Z,6.50
2023-01-29T16:44:59.929Z,7.20
2023-01-29T16:47:29.692Z,7.57
2023-01-29T16:50:02.019Z,8.10
2023-01-29T16:52:33.872Z,7.10
2023-01-29T16:55:13.625Z,8.83
2023-01-29T16:57:42.094Z,8.50
2023-01-29T17:00:41.824Z,8.40
2023-01-29T17:03:17.869Z,9.17
2023-01-29T17:05:46.487Z,8.63
2023-01-29T17:08:20.783Z,9.83
2023-01-29T17:10:51.102Z,8.40
2023-01-29T17:13:34.381Z,8.20
2023-01-29T17:16:16.653Z,9.00
2023-01-29T17:18:44.640Z,8.07
2023-01-29T17:21:12.157Z,9.07
2023-01-29T17:23:40.343Z,8.43
2023-01-29T17:26:12.926Z,8.03
2023-01-29T17:28:43.040Z,8.43
2023-01-29T17:31:15.251Z,8.60
2023-01-29T17:33:44.716Z,9.50
2023-01-29T17:36:19.367Z,9.53
2023-01-29T17:38:47.533Z,9.97
2023-01-29T17:41:31.189Z,9.27
2023-01-29T17:43:59.852Z,10.17
2023-01-29T17:46:28.625Z,8.73
2023-01-29T17:48:56.511Z,8.90
2023-01-29T17:51:28.932Z,9.93
2023-01-29T17:53:59.088Z,9.27
2023-01-29T17:56:29.612Z,9.87
2023-01-29T17:58:57.495Z,9.50
2023-01-29T18:01:27.581Z,9.67
2023-01-29T18:03:55.346Z,9.93
2023-01-29T18:06:29.455Z,9.87
2023-01-29T18:08:58.782Z,10.03
2023-01-29T18:11:28.265Z,9.53
2023-01-29T18:13:57.791Z,10.63
2023-01-29T18:16:26.552Z,9.77
2023-01-29T18:18:54.469Z,10.03
2023-01-29T18:21:25.004Z,9.83
2023-01-29T18:23:54.234Z,10.23
2023-01-29T18:26:22.814Z,9.83
2023-01-29T18:28:54.377Z,10.47
2023-01-29T18:31:27.750Z,29.50
2023-01-29T18:33:58.791Z,19.07
2023-01-29T18:36:28.467Z,13.30
2023-01-29T18:38:59.101Z,12.03
2023-01-29T18:41:29.709Z,9.10
2023-01-29T18:43:58.431Z,9.27
2023-01-29T18:46:30.439Z,11.77
2023-01-29T18:48:57.948Z,12.30
2023-01-29T18:51:25.591Z,17.07
2023-01-29T18:53:53.250Z,12.03
2023-01-29T18:56:22.176Z,12.40
2023-01-29T18:58:55.961Z,13.17
2023-01-29T19:01:47.731Z,12.10
2023-01-29T19:04:16.030Z,13.03
2023-01-29T19:06:44.672Z,13.50
2023-01-29T19:09:12.475Z,13.57
2023-01-29T19:11:41.702Z,12.80
2023-01-29T19:14:10.214Z,13.90
2023-01-29T19:16:37.720Z,13.40
2023-01-29T19:19:06.106Z,19.90
2023-01-29T19:21:37.504Z,36.63
2023-01-29T19:24:07.813Z,63.53
2023-01-29T19:26:39.066Z,27.37
2023-01-29T19:29:10.286Z,25.80
2023-01-29T19:31:38.704Z,41.40
2023-01-29T19:34:06.499Z,19.73
2023-01-29T19:36:37.350Z,32.17
2023-01-29T19:39:06.776Z,39.70
2023-01-29T19:41:54.700Z,21.00
2023-01-29T19:44:22.797Z,17.43
2023-01-29T19:46:53.343Z,19.67
2023-01-29T19:49:23.492Z,27.53
2023-01-29T19:51:53.436Z,23.53
2023-01-29T19:54:23.283Z,24.07
2023-01-29T19:56:51.294Z,20.03
2023-01-29T19:59:20.427Z,17.67
2023-01-29T20:01:51.698Z,17.07
2023-01-29T20:04:20.669Z,15.87
2023-01-29T20:06:50.293Z,15.67
2023-01-29T20:09:21.181Z,16.20
2023-01-29T20:11:49.981Z,17.63
2023-01-29T20:14:17.665Z,15.10
2023-01-29T20:16:46.933Z,15.80
2023-01-29T20:19:16.523Z,20.33
2023-01-29T20:21:49.197Z,16.37
2023-01-29T20:24:16.858Z,15.73
2023-01-29T20:26:47.455Z,14.97
2023-01-29T20:29:15.640Z,14.23
2023-01-29T20:31:43.765Z,20.30
2023-01-29T20:34:11.689Z,16.70
2023-01-29T20:36:39.668Z,15.77
2023-01-29T20:39:12.330Z,14.70
2023-01-29T20:41:44.402Z,15.03
2023-01-29T20:44:12.744Z,16.10
2023-01-29T20:46:43.200Z,16.60
2023-01-29T20:49:11.940Z,15.70
2023-01-29T20:51:39.524Z,15.20
2023-01-29T20:54:08.178Z,16.30
2023-01-29T20:56:40.853Z,22.07
2023-01-29T20:59:15.150Z,20.93
2023-01-29T21:01:43.935Z,22.77
2023-01-29T21:04:12.994Z,20.73
2023-01-29T21:06:42.952Z,19.70
2023-01-29T21:09:10.908Z,20.40
2023-01-29T21:11:42.087Z,20.47
2023-01-29T21:14:11.361Z,21.27
2023-01-29T21:16:40.594Z,20.73
2023-01-29T21:19:10.843Z,18.63
2023-01-29T21:21:41.129Z,16.60
2023-01-29T21:24:11.846Z,16.60
2023-01-29T21:26:39.427Z,31.97
2023-01-29T21:29:07.986Z,37.67
2023-01-29T21:31:35.579Z,43.17
2023-01-29T21:34:04.781Z,29.33
2023-01-29T21:36:33.832Z,24.30
2023-01-29T21:39:01.912Z,21.57
2023-01-29T21:41:47.969Z,20.20
2023-01-29T21:44:16.511Z,22.27
2023-01-29T21:46:44.177Z,24.23
2023-01-29T21:49:12.908Z,25.40
2023-01-29T21:51:42.317Z,53.63
2023-01-29T21:54:09.953Z,64.97
2023-01-29T21:56:37.804Z,77.07
2023-01-29T21:59:06.569Z,69.93
2023-01-29T22:01:37.899Z,73.60
2023-01-29T22:04:08.706Z,48.93
2023-01-29T22:06:36.243Z,38.80
2023-01-29T22:09:06.374Z,74.13
2023-01-29T22:11:34.019Z,78.80
2023-01-29T22:14:01.559Z,76.93
2023-01-29T22:16:32.248Z,32.53
2023-01-29T22:18:59.951Z,12.30
2023-01-29T22:21:27.651Z,11.20
2023-01-29T22:23:56.293Z,9.97
2023-01-29T22:26:25.495Z,10.07
2023-01-29T22:28:52.932Z,9.70
2023-01-29T22:31:20.405Z,9.63
2023-01-29T22:33:47.920Z,10.00
2023-01-29T22:36:15.746Z,9.70
2023-01-29T22:38:43.656Z,9.20
2023-01-29T22:41:11.625Z,9.77
2023-01-29T22:43:41.037Z,9.60
2023-01-29T22:46:12.658Z,9.47
2023-01-29T22:48:40.169Z,10.10
2023-01-29T22:51:10.983Z,9.93
2023-01-29T22:53:48.551Z,9.87
2023-01-29T22:56:17.237Z,10.20
2023-01-29T22:58:44.905Z,9.90
2023-01-29T23:01:12.432Z,9.50
2023-01-29T23:03:39.958Z,9.37
2023-01-29T23:06:07.422Z,9.83
2023-01-29T23:08:34.927Z,10.23
2023-01-29T23:11:17.764Z,10.10
2023-01-29T23:13:56.140Z,9.87
2023-01-29T23:16:28.217Z,10.13
2023-01-29T23:18:56.981Z,11.47
2023-01-29T23:21:25.923Z,10.63
2023-01-29T23:23:55.392Z,10.03
2023-01-29T23:26:41.443Z,10.80
2023-01-29T23:29:10.166Z,11.30
2023-01-29T23:31:37.778Z,10.13
2023-01-29T23:34:05.281Z,11.17
2023-01-29T23:36:32.734Z,12.10
2023-01-29T23:39:01.713Z,16.07
2023-01-29T23:41:29.303Z,18.93
2023-01-29T23:43:58.061Z,17.70
2023-01-29T23:46:25.628Z,18.70
2023-01-29T23:48:53.283Z,19.10
2023-01-29T23:51:20.834Z,17.80
2023-01-29T23:53:48.342Z,18.33
2023-01-29T23:56:15.930Z,11.50
2023-01-29T23:58:44.907Z,10.80
